createdAt,value
2022-12-05T00:00:55.751Z,31.77
2022-12-05T00:04:58.549Z,33.00
2022-12-05T00:09:01.870Z,33.23
2022-12-05T00:13:07.093Z,30.73
2022-12-05T00:17:10.114Z,31.43
2022-12-05T00:21:15.955Z,31.13
2022-12-05T00:25:19.246Z,29.93
2022-12-05T00:29:23.492Z,31.33
2022-12-05T00:33:26.285Z,33.57
2022-12-05T00:37:29.274Z,32.83
2022-12-05T00:41:32.475Z,31.73
2022-12-05T00:45:36.682Z,31.13
2022-12-05T00:49:39.518Z,30.77
2022-12-05T00:53:42.880Z,29.13
2022-12-05T00:57:45.806Z,29.83
2022-12-05T01:01:52.341Z,30.37
2022-12-05T01:05:55.189Z,29.27
2022-12-05T01:09:58.369Z,29.27
2022-12-05T01:14:01.497Z,29.27
2022-12-05T01:18:05.969Z,30.13
2022-12-05T01:22:08.700Z,29.47
2022-12-05T01:26:14.899Z,27.80
2022-12-05T01:30:17.901Z,28.63
2022-12-05T01:34:22.501Z,28.47
2022-12-05T01:38:25.324Z,28.10
2022-12-05T01:42:28.309Z,29.93
2022-12-05T01:46:32.896Z,27.50
2022-12-05T01:50:38.953Z,27.00
2022-12-05T01:54:43.128Z,27.93
2022-12-05T01:58:47.355Z,27.63
2022-12-05T02:02:53.716Z,28.20
2022-12-05T02:06:58.063Z,28.53
2022-12-05T02:11:01.344Z,30.20
2022-12-05T02:15:22.618Z,28.30
2022-12-05T02:20:03.912Z,27.67
2022-12-05T02:24:49.173Z,27.20
2022-12-05T02:29:17.137Z,26.27
2022-12-05T02:33:27.517Z,29.43
2022-12-05T02:37:38.998Z,27.77
2022-12-05T02:41:48.852Z,27.87
2022-12-05T02:45:58.585Z,28.90
2022-12-05T02:50:05.019Z,28.20
2022-12-05T02:54:12.714Z,27.63
2022-12-05T02:58:21.633Z,28.80
2022-12-05T03:02:26.721Z,29.43
2022-12-05T03:06:33.225Z,28.53
2022-12-05T03:10:42.133Z,27.87
2022-12-05T03:14:48.597Z,27.27
2022-12-05T03:18:55.143Z,28.23
2022-12-05T03:23:04.072Z,30.03
2022-12-05T03:27:12.005Z,27.17
2022-12-05T03:31:19.461Z,25.27
2022-12-05T03:35:28.834Z,26.80
2022-12-05T03:39:37.233Z,27.87
2022-12-05T03:43:46.974Z,27.00
2022-12-05T03:47:58.128Z,27.83
2022-12-05T03:52:11.394Z,28.73
2022-12-05T03:56:22.083Z,28.73
2022-12-05T04:00:25.908Z,30.07
2022-12-05T04:04:35.699Z,30.67
2022-12-05T04:08:45.291Z,29.07
2022-12-05T04:12:53.479Z,25.90
2022-12-05T04:17:05.849Z,29.17
2022-12-05T04:21:26.476Z,29.37
2022-12-05T04:25:36.977Z,28.87
2022-12-05T04:29:50.033Z,27.83
2022-12-05T04:33:56.983Z,26.87
2022-12-05T04:38:05.433Z,31.00
2022-12-05T04:42:12.014Z,29.80
2022-12-05T04:46:19.336Z,26.17
2022-12-05T04:50:23.719Z,26.63
2022-12-05T04:54:30.653Z,28.97
2022-12-05T04:58:33.807Z,27.67
2022-12-05T05:02:43.839Z,28.10
2022-12-05T05:06:46.829Z,25.13
2022-12-05T05:10:58.352Z,28.57
2022-12-05T05:15:01.114Z,27.67
2022-12-05T05:19:06.155Z,27.90
2022-12-05T05:23:09.633Z,27.97
2022-12-05T05:27:12.593Z,25.70
2022-12-05T05:31:17.005Z,27.27
2022-12-05T05:35:21.527Z,25.03
2022-12-05T05:39:26.794Z,26.43
2022-12-05T05:43:29.768Z,26.17
2022-12-05T05:47:32.737Z,26.53
2022-12-05T05:51:37.163Z,24.37
2022-12-05T05:55:40.736Z,25.03
2022-12-05T05:59:43.623Z,24.03
2022-12-05T06:03:47.275Z,24.77
2022-12-05T06:07:53.383Z,24.10
2022-12-05T06:11:56.299Z,23.20
2022-12-05T06:15:59.287Z,24.20
2022-12-05T06:20:02.287Z,25.87
2022-12-05T06:24:07.490Z,22.10
2022-12-05T06:28:10.417Z,21.97
2022-12-05T06:32:13.526Z,21.97
2022-12-05T06:36:18.403Z,21.83
2022-12-05T06:40:23.359Z,23.53
2022-12-05T06:44:28.610Z,22.00
2022-12-05T06:48:32.742Z,23.20
2022-12-05T06:52:35.514Z,22.57
2022-12-05T06:56:39.922Z,23.33
2022-12-05T07:01:01.349Z,21.13
2022-12-05T07:05:04.248Z,20.17
2022-12-05T07:09:08.007Z,19.50
2022-12-05T07:13:15.610Z,22.60
2022-12-05T07:17:19.838Z,20.63
2022-12-05T07:21:23.038Z,22.67
2022-12-05T07:25:26.253Z,22.63
2022-12-05T07:29:31.036Z,21.87
2022-12-05T07:33:34.090Z,22.63
2022-12-05T07:37:37.128Z,21.40
2022-12-05T07:41:40.158Z,21.93
2022-12-05T07:45:46.579Z,22.73
2022-12-05T07:49:49.641Z,20.17
2022-12-05T07:53:52.842Z,21.77
2022-12-05T07:57:55.691Z,24.50
2022-12-05T08:02:00.018Z,22.87
2022-12-05T08:06:04.350Z,22.50
2022-12-05T08:10:09.829Z,24.33
2022-12-05T08:14:13.884Z,26.23
2022-12-05T08:18:19.373Z,25.30
2022-12-05T08:22:24.978Z,25.33
2022-12-05T08:26:29.763Z,27.23
2022-12-05T08:30:32.807Z,24.87
2022-12-05T08:34:37.210Z,27.23
2022-12-05T08:38:40.453Z,27.97
2022-12-05T08:42:43.360Z,26.33
2022-12-05T08:46:47.777Z,29.10
2022-12-05T08:50:51.985Z,28.60
2022-12-05T08:54:54.777Z,31.63
2022-12-05T08:59:04.817Z,32.03
2022-12-05T09:03:11.807Z,33.37
2022-12-05T09:07:15.874Z,31.77
2022-12-05T09:11:21.518Z,33.57
2022-12-05T09:15:24.563Z,33.30
2022-12-05T09:19:28.585Z,32.87
2022-12-05T09:23:33.179Z,29.00
2022-12-05T09:27:36.731Z,32.40
2022-12-05T09:31:42.860Z,30.13
2022-12-05T09:35:46.028Z,28.87
2022-12-05T09:39:50.336Z,33.20
2022-12-05T09:44:04.041Z,33.00
2022-12-05T09:48:12.059Z,33.00
2022-12-05T09:52:23.232Z,31.63
2022-12-05T09:56:31.447Z,29.43
2022-12-05T10:00:34.813Z,34.07
2022-12-05T10:05:00.091Z,28.07
2022-12-05T10:09:21.518Z,30.57
2022-12-05T10:13:41.446Z,32.73
2022-12-05T10:17:51.332Z,32.23
2022-12-05T10:21:59.037Z,31.53
2022-12-05T10:26:06.201Z,29.67
2022-12-05T10:30:16.088Z,29.17
2022-12-05T10:34:29.957Z,28.07
2022-12-05T10:38:33.582Z,27.80
2022-12-05T10:42:37.212Z,26.83
2022-12-05T10:46:41.718Z,27.53
2022-12-05T10:50:46.299Z,26.73
2022-12-05T10:54:56.201Z,31.87
2022-12-05T10:59:00.846Z,26.90
2022-12-05T11:03:06.511Z,26.47
2022-12-05T11:07:25.380Z,28.90
2022-12-05T11:11:29.791Z,27.43
2022-12-05T11:15:34.546Z,28.13
2022-12-05T11:19:39.524Z,26.63
2022-12-05T11:23:42.474Z,29.17
2022-12-05T11:27:45.399Z,26.47
2022-12-05T11:31:52.751Z,26.23
2022-12-05T11:36:03.886Z,26.47
2022-12-05T11:40:16.157Z,23.47
2022-12-05T11:44:44.650Z,23.23
2022-12-05T11:49:04.957Z,24.37
2022-12-05T11:53:27.782Z,23.10
2022-12-05T11:57:52.236Z,21.07
2022-12-05T12:02:09.257Z,20.97
2022-12-05T12:06:32.670Z,22.10
2022-12-05T12:10:48.251Z,20.53
2022-12-05T12:15:04.505Z,19.27
2022-12-05T12:19:18.779Z,19.30
2022-12-05T12:23:43.941Z,17.73
2022-12-05T12:28:04.537Z,16.83
2022-12-05T12:32:24.587Z,21.33
2022-12-05T12:36:30.315Z,20.77
2022-12-05T12:40:43.891Z,19.93
2022-12-05T12:45:06.988Z,17.87
2022-12-05T12:49:28.599Z,20.90
2022-12-05T12:53:44.706Z,16.27
2022-12-05T12:58:01.595Z,18.63
2022-12-05T13:02:17.313Z,19.97
2022-12-05T13:06:28.265Z,19.80
2022-12-05T13:10:36.465Z,17.77
2022-12-05T13:14:42.711Z,18.83
2022-12-05T13:18:47.228Z,17.00
2022-12-05T13:22:56.495Z,17.53
2022-12-05T13:27:02.569Z,17.47
2022-12-05T13:31:06.349Z,19.13
2022-12-05T13:35:13.235Z,15.80
2022-12-05T13:39:41.721Z,18.33
2022-12-05T13:44:05.811Z,15.13
2022-12-05T13:48:28.363Z,17.10
2022-12-05T13:52:42.578Z,17.40
2022-12-05T13:56:52.616Z,20.93
2022-12-05T14:01:39.356Z,19.27
2022-12-05T14:05:51.279Z,21.40
2022-12-05T14:09:57.234Z,20.40
2022-12-05T14:14:04.849Z,19.50
2022-12-05T14:18:15.393Z,20.00
2022-12-05T14:22:54.947Z,18.37
2022-12-05T14:27:08.336Z,17.77
2022-12-05T14:31:35.641Z,18.07
2022-12-05T14:35:46.031Z,24.47
2022-12-05T14:39:52.561Z,24.07
2022-12-05T14:43:59.483Z,23.63
2022-12-05T14:48:07.724Z,23.83
2022-12-05T14:52:12.380Z,18.50
2022-12-05T14:56:22.514Z,20.10
2022-12-05T15:00:27.671Z,23.80
2022-12-05T15:04:36.552Z,22.30
2022-12-05T15:08:47.922Z,19.73
2022-12-05T15:12:56.296Z,21.77
2022-12-05T15:17:03.588Z,17.57
2022-12-05T15:21:10.643Z,20.27
2022-12-05T15:25:33.027Z,20.07
2022-12-05T15:29:42.910Z,20.70
2022-12-05T15:33:56.904Z,20.83
2022-12-05T15:38:08.225Z,19.70
2022-12-05T15:42:16.408Z,18.77
2022-12-05T15:46:24.921Z,20.97
2022-12-05T15:50:38.384Z,20.13
2022-12-05T15:54:44.147Z,20.77
2022-12-05T15:58:52.929Z,21.63
2022-12-05T16:03:00.178Z,19.73
2022-12-05T16:07:09.640Z,20.03
2022-12-05T16:11:13.925Z,16.00
2022-12-05T16:15:23.014Z,14.90
2022-12-05T16:19:26.102Z,16.40
2022-12-05T16:23:31.485Z,17.03
2022-12-05T16:27:36.413Z,18.97
2022-12-05T16:31:40.971Z,16.33
2022-12-05T16:35:46.477Z,13.00
2022-12-05T16:39:50.638Z,11.70
2022-12-05T16:43:53.984Z,9.10
2022-12-05T16:47:59.932Z,11.23
2022-12-05T16:52:13.985Z,10.23
2022-12-05T16:56:21.601Z,10.00
2022-12-05T17:00:24.655Z,8.60
2022-12-05T17:04:27.808Z,8.53
2022-12-05T17:08:30.565Z,7.83
2022-12-05T17:12:34.987Z,7.67
2022-12-05T17:16:37.767Z,7.90
2022-12-05T17:20:42.443Z,7.10
2022-12-05T17:24:45.417Z,6.93
2022-12-05T17:28:50.503Z,6.47
2022-12-05T17:32:53.374Z,6.30
2022-12-05T17:36:56.157Z,6.20
2022-12-05T17:41:02.564Z,6.00
2022-12-05T17:45:14.321Z,7.47
2022-12-05T17:49:18.002Z,6.63
2022-12-05T17:53:22.078Z,8.57
2022-12-05T17:57:24.787Z,8.87
2022-12-05T18:01:28.982Z,8.03
2022-12-05T18:05:31.822Z,6.60
2022-12-05T18:09:34.588Z,6.07
2022-12-05T18:13:37.376Z,14.20
2022-12-05T18:17:41.792Z,6.90
2022-12-05T18:25:59.103Z,6.77
2022-12-05T18:30:01.902Z,6.83
2022-12-05T18:34:06.037Z,7.47
2022-12-05T18:38:09.231Z,6.67
2022-12-05T18:42:15.310Z,6.67
2022-12-05T18:46:18.894Z,7.30
2022-12-05T18:50:23.074Z,6.57
2022-12-05T18:54:27.129Z,6.37
2022-12-05T18:58:29.902Z,6.83
2022-12-05T19:02:32.785Z,6.33
2022-12-05T19:06:39.717Z,6.03
2022-12-05T19:10:42.439Z,6.83
2022-12-05T19:14:45.537Z,7.00
2022-12-05T19:18:48.418Z,6.87
2022-12-05T19:22:57.704Z,6.50
2022-12-05T19:27:03.396Z,6.60
2022-12-05T19:31:09.147Z,5.60
2022-12-05T19:35:11.887Z,6.50
2022-12-05T19:39:18.762Z,6.67
2022-12-05T19:43:21.533Z,6.03
2022-12-05T19:47:24.427Z,6.13
2022-12-05T19:51:27.502Z,6.23
2022-12-05T19:55:31.586Z,6.80
2022-12-05T19:59:34.272Z,5.70
2022-12-05T20:03:37.139Z,7.30
2022-12-05T20:07:39.953Z,7.43
2022-12-05T20:11:50.945Z,7.97
2022-12-05T20:16:01.884Z,8.30
2022-12-05T20:20:05.553Z,7.50
2022-12-05T20:24:09.027Z,8.03
2022-12-05T20:28:13.229Z,9.10
2022-12-05T20:32:16.032Z,8.90
2022-12-05T20:36:21.602Z,8.90
2022-12-05T20:40:24.338Z,8.27
2022-12-05T20:44:28.439Z,9.77
2022-12-05T20:48:31.208Z,9.60
2022-12-05T20:52:33.927Z,8.43
2022-12-05T20:56:36.869Z,9.70
2022-12-05T21:00:40.952Z,9.97
2022-12-05T21:04:43.787Z,10.67
2022-12-05T21:08:46.549Z,9.87
2022-12-05T21:12:49.304Z,9.47
2022-12-05T21:16:53.611Z,13.33
2022-12-05T21:20:57.624Z,11.30
2022-12-05T21:25:00.361Z,11.40
2022-12-05T21:29:06.823Z,9.83
2022-12-05T21:33:10.924Z,10.00
2022-12-05T21:37:13.684Z,8.67
2022-12-05T21:41:17.735Z,8.70
2022-12-05T21:45:20.497Z,9.90
2022-12-05T21:49:24.565Z,9.23
2022-12-05T21:53:27.555Z,7.27
2022-12-05T21:57:32.010Z,10.50
2022-12-05T22:01:34.801Z,10.47
2022-12-05T22:05:38.885Z,9.43
2022-12-05T22:09:41.559Z,9.83
2022-12-05T22:13:47.096Z,10.00
2022-12-05T22:17:49.776Z,10.90
2022-12-05T22:21:53.834Z,8.80
2022-12-05T22:25:58.271Z,9.17
2022-12-05T22:30:01.243Z,8.60
2022-12-05T22:34:04.124Z,9.10
2022-12-05T22:38:08.611Z,10.30
2022-12-05T22:42:11.347Z,9.33
2022-12-05T22:46:17.415Z,9.87
2022-12-05T22:50:20.223Z,10.33
2022-12-05T22:54:28.701Z,9.23
2022-12-05T22:58:33.390Z,8.13
2022-12-05T23:02:36.304Z,8.10
2022-12-05T23:06:39.792Z,8.37
2022-12-05T23:10:43.908Z,8.27
2022-12-05T23:14:46.622Z,9.83
2022-12-05T23:18:50.302Z,8.20
2022-12-05T23:22:52.989Z,8.73
2022-12-05T23:26:57.031Z,7.23
2022-12-05T23:31:02.642Z,7.63
2022-12-05T23:35:06.155Z,7.87
2022-12-05T23:39:08.924Z,8.67
2022-12-05T23:43:13.008Z,7.33
2022-12-05T23:47:15.808Z,7.83
2022-12-05T23:51:20.392Z,7.87
2022-12-05T23:55:23.096Z,7.53
2022-12-05T23:59:27.318Z,9.00
